22°C Temp
17°C Dewpoint
73% Humidity
Temperature
16 KM/H
10 MPH
9 KTS
260°
Due West

Wind Speed
Partly Cloudy
Conditions
Pressure 1018.96 (hPa) - 30.09 (in)
Visibility 6.0 (mi) - 9.7 (km)

Current Conditions
LIRP
Location Pisa 30(km)
Metar :LIRP 261545Z 26009KT 9999 FEW025 22/17 Q1019 NOSIG
Sun 26th May 16:45 pm

Airport
  Metar Aviation API Data Provided by https://www.checkwx.com/ PHP scripts by weather34.com ©2024